createdAt,value
2018-06-21T00:02:02.236Z,63.66
2018-06-21T00:04:31.325Z,64.17
2018-06-21T00:07:00.421Z,65.15
2018-06-21T00:09:29.537Z,64.59
2018-06-21T00:11:58.625Z,65.38
2018-06-21T00:14:27.709Z,65.04
2018-06-21T00:16:56.937Z,64.86
2018-06-21T00:19:26.104Z,65.47
2018-06-21T00:21:55.212Z,65.79
2018-06-21T00:24:24.749Z,64.50
2018-06-21T00:26:53.954Z,64.72
2018-06-21T00:29:23.097Z,63.89
2018-06-21T00:31:52.164Z,64.68
2018-06-21T00:34:21.586Z,65.43
2018-06-21T00:36:50.727Z,63.99
2018-06-21T00:39:19.881Z,65.15
2018-06-21T00:41:48.976Z,64.20
2018-06-21T00:44:18.073Z,65.51
2018-06-21T00:46:47.165Z,65.29
2018-06-21T00:49:16.258Z,65.17
2018-06-21T00:51:45.353Z,65.92
2018-06-21T00:54:14.517Z,64.95
2018-06-21T00:56:43.689Z,64.88
2018-06-21T00:59:12.970Z,64.12
2018-06-21T01:01:42.122Z,65.43
2018-06-21T01:04:11.227Z,65.24
2018-06-21T01:06:40.317Z,65.39
2018-06-21T01:09:09.458Z,63.54
2018-06-21T01:11:38.559Z,63.94
2018-06-21T01:14:07.637Z,62.24
2018-06-21T01:16:36.777Z,63.04
2018-06-21T01:19:05.898Z,62.13
2018-06-21T01:21:35.178Z,62.65
2018-06-21T01:24:04.634Z,62.69
2018-06-21T01:26:33.725Z,62.20
2018-06-21T01:29:02.807Z,63.24
2018-06-21T01:31:31.898Z,62.89
2018-06-21T01:34:00.985Z,63.81
2018-06-21T01:36:30.173Z,64.03
2018-06-21T01:38:59.309Z,62.99
2018-06-21T01:41:28.526Z,63.31
2018-06-21T01:43:58.344Z,63.26
2018-06-21T01:46:27.434Z,63.94
2018-06-21T01:48:56.545Z,63.39
2018-06-21T01:51:25.712Z,63.27
2018-06-21T01:53:55.014Z,64.42
2018-06-21T01:56:24.221Z,63.97
2018-06-21T01:58:53.314Z,64.31
2018-06-21T02:01:22.405Z,65.06
2018-06-21T02:03:51.501Z,65.09
2018-06-21T02:06:20.605Z,64.88
2018-06-21T02:08:49.710Z,65.49
2018-06-21T02:11:19.377Z,65.23
2018-06-21T02:13:48.490Z,65.51
2018-06-21T02:16:17.922Z,64.83
2018-06-21T02:18:47.138Z,66.34
2018-06-21T02:21:16.309Z,66.87
2018-06-21T02:23:45.449Z,68.09
2018-06-21T02:26:14.562Z,68.23
2018-06-21T02:28:43.697Z,67.80
2018-06-21T02:31:12.986Z,69.14
2018-06-21T02:33:42.105Z,69.38
2018-06-21T02:36:11.374Z,69.48
2018-06-21T02:38:40.603Z,70.71
2018-06-21T02:41:09.805Z,70.60
2018-06-21T02:43:38.931Z,70.27
2018-06-21T02:46:08.013Z,71.71
2018-06-21T02:48:37.131Z,71.16
2018-06-21T02:51:06.291Z,71.66
2018-06-21T02:53:35.465Z,71.41
2018-06-21T02:56:04.577Z,71.12
2018-06-21T02:58:33.785Z,71.27
2018-06-21T03:01:02.898Z,72.07
2018-06-21T03:03:31.981Z,73.04
2018-06-21T03:06:01.079Z,73.06
2018-06-21T03:08:30.339Z,74.36
2018-06-21T03:10:59.554Z,75.83
2018-06-21T03:13:28.750Z,75.53
2018-06-21T03:15:57.973Z,75.20
2018-06-21T03:18:27.165Z,74.64
2018-06-21T03:20:56.286Z,75.06
2018-06-21T03:23:25.393Z,75.49
2018-06-21T03:25:54.578Z,74.83
2018-06-21T03:28:23.669Z,73.34
2018-06-21T03:30:52.774Z,73.33
2018-06-21T03:33:21.861Z,73.45
2018-06-21T03:35:50.957Z,74.50
2018-06-21T03:38:20.037Z,73.97
2018-06-21T03:40:49.563Z,73.87
2018-06-21T03:43:18.642Z,73.53
2018-06-21T03:45:47.741Z,73.03
2018-06-21T03:48:16.820Z,71.69
2018-06-21T03:50:45.965Z,72.83
2018-06-21T03:53:15.089Z,72.43
2018-06-21T03:55:44.173Z,72.21
2018-06-21T03:58:13.365Z,73.10
2018-06-21T04:00:42.519Z,75.03
2018-06-21T04:03:11.905Z,75.08
2018-06-21T04:05:41.097Z,74.16
2018-06-21T04:08:10.277Z,74.92
2018-06-21T04:10:39.370Z,73.74
2018-06-21T04:13:08.453Z,74.19
2018-06-21T04:15:37.655Z,73.59
2018-06-21T04:18:06.799Z,73.46
2018-06-21T04:20:36.466Z,74.32
2018-06-21T04:23:06.184Z,73.98
2018-06-21T04:25:35.358Z,74.01
2018-06-21T04:28:04.453Z,73.41
2018-06-21T04:30:33.577Z,72.64
2018-06-21T04:33:03.300Z,73.62
2018-06-21T04:35:32.494Z,72.54
2018-06-21T04:38:01.574Z,71.50
2018-06-21T04:40:30.677Z,73.36
2018-06-21T04:42:59.841Z,72.76
2018-06-21T04:45:28.933Z,71.47
2018-06-21T04:47:58.029Z,71.24
2018-06-21T04:50:27.145Z,70.30
2018-06-21T04:52:56.269Z,69.21
2018-06-21T04:55:25.389Z,69.31
2018-06-21T04:57:54.553Z,67.97
2018-06-21T05:00:23.681Z,68.11
2018-06-21T05:02:52.776Z,67.07
2018-06-21T05:05:21.958Z,67.69
2018-06-21T05:07:51.057Z,66.87
2018-06-21T05:10:20.217Z,65.72
2018-06-21T05:12:49.309Z,64.06
2018-06-21T05:15:18.389Z,64.54
2018-06-21T05:17:47.517Z,64.16
2018-06-21T05:20:16.598Z,64.04
2018-06-21T05:22:45.709Z,63.72
2018-06-21T05:25:14.864Z,62.99
2018-06-21T05:27:43.882Z,63.04
2018-06-21T05:30:13.033Z,63.20
2018-06-21T05:32:42.129Z,63.08
2018-06-21T05:35:11.221Z,63.47
2018-06-21T05:37:40.330Z,63.20
2018-06-21T05:40:19.566Z,63.49
2018-06-21T05:42:48.645Z,63.34
2018-06-21T05:45:17.733Z,63.24
2018-06-21T05:47:46.842Z,63.94
2018-06-21T05:50:16.083Z,63.32
2018-06-21T05:52:45.114Z,63.13
2018-06-21T05:55:14.274Z,62.95
2018-06-21T05:57:43.570Z,62.72
2018-06-21T06:00:12.751Z,63.44
2018-06-21T06:02:41.882Z,63.77
2018-06-21T06:05:11.035Z,63.57
2018-06-21T06:07:40.133Z,63.74
2018-06-21T06:10:09.341Z,64.45
2018-06-21T06:12:38.352Z,65.58
2018-06-21T06:15:07.521Z,64.81
2018-06-21T06:17:36.678Z,64.60
2018-06-21T06:20:05.853Z,65.51
2018-06-21T06:22:34.935Z,66.23
2018-06-21T06:25:04.079Z,65.57
2018-06-21T06:27:33.266Z,65.50
2018-06-21T06:30:02.429Z,65.99
2018-06-21T06:32:31.518Z,66.91
2018-06-21T06:35:00.613Z,67.45
2018-06-21T06:37:29.722Z,66.86
2018-06-21T06:39:58.861Z,68.14
2018-06-21T06:42:28.026Z,67.81
2018-06-21T06:44:57.505Z,67.91
2018-06-21T06:47:27.265Z,66.23
2018-06-21T06:49:56.792Z,68.05
2018-06-21T06:52:25.986Z,67.56
2018-06-21T06:54:55.081Z,68.32
2018-06-21T06:57:24.249Z,68.64
2018-06-21T06:59:53.389Z,68.80
2018-06-21T07:02:22.506Z,69.15
2018-06-21T07:04:51.610Z,68.72
2018-06-21T07:07:20.897Z,69.29
2018-06-21T07:09:50.006Z,68.24
2018-06-21T07:12:19.129Z,69.04
2018-06-21T07:14:48.225Z,69.20
2018-06-21T07:17:17.341Z,68.68
2018-06-21T07:19:46.413Z,69.25
2018-06-21T07:22:15.513Z,69.81
2018-06-21T07:24:44.697Z,69.87
2018-06-21T07:27:13.915Z,70.38
2018-06-21T07:29:42.957Z,69.64
2018-06-21T07:32:12.094Z,70.32
2018-06-21T07:34:41.197Z,71.13
2018-06-21T07:37:10.294Z,70.36
2018-06-21T07:39:39.478Z,70.39
2018-06-21T07:42:08.658Z,69.84
2018-06-21T07:44:37.761Z,69.48
2018-06-21T07:47:06.857Z,69.51
2018-06-21T07:49:36.014Z,70.03
2018-06-21T07:52:05.192Z,70.35
2018-06-21T07:54:34.290Z,70.23
2018-06-21T07:57:03.386Z,69.22
2018-06-21T07:59:32.522Z,70.02
2018-06-21T08:02:01.610Z,70.57
2018-06-21T08:04:30.741Z,74.24
2018-06-21T08:06:59.845Z,74.25
2018-06-21T08:09:28.937Z,75.02
2018-06-21T08:11:58.097Z,74.51
2018-06-21T08:14:27.213Z,75.13
2018-06-21T08:16:56.334Z,75.78
2018-06-21T08:19:25.562Z,75.72
2018-06-21T08:21:54.657Z,76.21
2018-06-21T08:24:23.800Z,74.30
2018-06-21T08:26:52.896Z,74.52
2018-06-21T08:29:22.027Z,74.86
2018-06-21T08:31:51.198Z,75.12
2018-06-21T08:34:20.329Z,74.67
2018-06-21T08:36:49.425Z,72.74
2018-06-21T08:39:18.525Z,72.67
2018-06-21T08:41:47.633Z,73.46
2018-06-21T08:44:16.725Z,71.84
2018-06-21T08:46:45.882Z,70.70
2018-06-21T08:49:15.049Z,70.59
2018-06-21T08:51:44.241Z,70.24
2018-06-21T08:54:13.352Z,70.42
2018-06-21T08:56:42.458Z,71.79
2018-06-21T08:59:11.602Z,72.06
2018-06-21T09:01:40.807Z,71.94
2018-06-21T09:04:09.901Z,70.47
2018-06-21T09:06:39.027Z,70.30
2018-06-21T09:09:09.089Z,69.04
2018-06-21T09:11:38.355Z,66.53
2018-06-21T09:14:07.469Z,66.38
2018-06-21T09:16:36.577Z,63.59
2018-06-21T09:19:05.689Z,62.30
2018-06-21T09:21:34.841Z,60.94
2018-06-21T09:24:04.025Z,58.66
2018-06-21T09:26:33.121Z,57.77
2018-06-21T09:29:02.202Z,58.22
2018-06-21T09:31:31.286Z,58.63
2018-06-21T09:34:00.381Z,56.08
2018-06-21T09:36:33.659Z,56.81
2018-06-21T09:39:07.851Z,57.40
2018-06-21T09:41:42.333Z,56.27
2018-06-21T09:44:16.816Z,55.00
2018-06-21T09:46:51.085Z,54.46
2018-06-21T09:49:20.229Z,54.60
2018-06-21T09:51:49.398Z,53.61
2018-06-21T09:54:18.502Z,53.00
2018-06-21T09:56:47.646Z,53.94
2018-06-21T09:59:16.830Z,53.06
2018-06-21T10:01:45.925Z,50.86
2018-06-21T10:04:15.105Z,52.48
2018-06-21T10:06:44.205Z,53.64
2018-06-21T10:09:13.321Z,53.72
2018-06-21T10:11:42.510Z,52.39
2018-06-21T10:14:11.597Z,50.94
2018-06-21T10:16:40.693Z,47.98
2018-06-21T10:19:09.881Z,48.42
2018-06-21T10:21:39.109Z,47.38
2018-06-21T10:24:08.193Z,47.94
2018-06-21T10:26:37.321Z,47.86
2018-06-21T10:29:06.489Z,48.20
2018-06-21T10:31:35.716Z,48.58
2018-06-21T10:34:04.805Z,48.02
2018-06-21T10:36:33.936Z,48.83
2018-06-21T10:39:03.153Z,47.72
2018-06-21T10:41:32.238Z,48.36
2018-06-21T10:44:01.334Z,45.94
2018-06-21T10:46:30.445Z,44.62
2018-06-21T10:48:59.605Z,44.75
2018-06-21T10:51:28.854Z,46.36
2018-06-21T10:53:57.989Z,45.25
2018-06-21T10:56:27.133Z,44.92
2018-06-21T10:58:56.275Z,44.84
2018-06-21T11:01:25.685Z,45.69
2018-06-21T11:03:54.881Z,42.03
2018-06-21T11:06:24.221Z,43.61
2018-06-21T11:08:53.373Z,41.84
2018-06-21T11:11:22.557Z,41.56
2018-06-21T11:13:51.742Z,43.38
2018-06-21T11:16:20.834Z,46.53
2018-06-21T11:18:49.946Z,48.06
2018-06-21T11:21:19.896Z,46.86
2018-06-21T11:23:49.034Z,44.78
2018-06-21T11:26:18.182Z,44.35
2018-06-21T11:28:47.454Z,44.84
2018-06-21T11:31:16.621Z,44.58
2018-06-21T11:33:45.733Z,42.28
2018-06-21T11:36:14.845Z,41.92
2018-06-21T11:38:43.981Z,41.21
2018-06-21T11:41:13.394Z,39.21
2018-06-21T11:43:42.490Z,36.90
2018-06-21T11:46:11.594Z,35.69
2018-06-21T11:48:40.923Z,34.79
2018-06-21T11:51:10.014Z,34.81
2018-06-21T11:53:39.138Z,34.54
2018-06-21T11:56:08.317Z,34.11
2018-06-21T11:58:37.413Z,33.75
2018-06-21T12:01:06.517Z,33.16
2018-06-21T12:03:35.654Z,34.83
2018-06-21T12:06:04.766Z,33.34
2018-06-21T12:08:33.888Z,33.56
2018-06-21T12:11:03.002Z,33.38
2018-06-21T12:13:32.116Z,32.97
2018-06-21T12:16:01.199Z,32.31
2018-06-21T12:18:30.301Z,33.20
2018-06-21T12:20:59.458Z,33.44
2018-06-21T12:23:28.565Z,34.26
2018-06-21T12:25:57.664Z,34.74
2018-06-21T12:28:26.812Z,35.98
2018-06-21T12:30:55.938Z,34.56
2018-06-21T12:33:25.078Z,34.25
2018-06-21T12:35:54.174Z,34.42
2018-06-21T12:38:23.347Z,33.03
2018-06-21T12:40:52.465Z,33.35
2018-06-21T12:43:21.618Z,32.72
2018-06-21T12:45:50.726Z,34.88
2018-06-21T12:48:19.817Z,33.54
2018-06-21T12:50:48.944Z,33.64
2018-06-21T12:53:18.074Z,33.09
2018-06-21T12:55:47.154Z,34.24
2018-06-21T12:58:16.306Z,32.81
2018-06-21T13:00:45.445Z,31.42
2018-06-21T13:03:14.595Z,31.82
2018-06-21T13:05:43.693Z,30.71
2018-06-21T13:08:18.502Z,30.73
2018-06-21T13:10:58.873Z,31.25
2018-06-21T13:13:28.395Z,31.54
2018-06-21T13:15:57.566Z,31.74
2018-06-21T13:18:26.682Z,29.35
2018-06-21T13:20:55.771Z,31.86
2018-06-21T13:23:28.485Z,31.18
2018-06-21T13:25:57.623Z,32.07
2018-06-21T13:28:26.801Z,31.19
2018-06-21T13:30:55.889Z,30.61
2018-06-21T13:33:24.999Z,30.64
2018-06-21T13:35:54.149Z,31.72
2018-06-21T13:38:23.253Z,33.45
2018-06-21T13:40:52.352Z,31.55
2018-06-21T13:43:21.436Z,32.12
2018-06-21T13:45:50.637Z,32.45
2018-06-21T13:48:19.725Z,31.58
2018-06-21T13:50:48.897Z,31.34
2018-06-21T13:53:18.026Z,31.49
2018-06-21T13:55:47.135Z,31.07
2018-06-21T13:58:16.287Z,31.93
2018-06-21T14:00:45.377Z,31.22
2018-06-21T14:03:14.485Z,32.36
2018-06-21T14:05:43.569Z,32.38
2018-06-21T14:08:12.715Z,31.15
2018-06-21T14:10:41.825Z,31.00
2018-06-21T14:13:10.926Z,30.49
2018-06-21T14:15:40.070Z,32.79
2018-06-21T14:18:09.281Z,33.75
2018-06-21T14:20:38.475Z,31.52
2018-06-21T14:23:07.509Z,31.90
2018-06-21T14:25:36.642Z,30.80
2018-06-21T14:28:05.781Z,32.42
2018-06-21T14:30:36.064Z,33.36
2018-06-21T14:33:09.432Z,33.34
2018-06-21T14:35:38.601Z,33.03
2018-06-21T14:38:07.753Z,31.31
2018-06-21T14:40:36.949Z,32.79
2018-06-21T14:43:06.488Z,33.63
2018-06-21T14:45:35.574Z,33.38
2018-06-21T14:48:04.867Z,34.35
2018-06-21T14:50:33.947Z,33.48
2018-06-21T14:53:03.137Z,33.60
2018-06-21T14:55:32.269Z,33.60
2018-06-21T14:58:01.608Z,33.87
2018-06-21T15:00:31.569Z,32.85
2018-06-21T15:03:00.778Z,33.07
2018-06-21T15:05:29.969Z,32.35
2018-06-21T15:07:59.131Z,32.09
2018-06-21T15:10:28.248Z,33.93
2018-06-21T15:12:57.438Z,31.96
2018-06-21T15:15:26.690Z,31.70
2018-06-21T15:17:55.785Z,31.86
2018-06-21T15:20:27.045Z,31.71
2018-06-21T15:22:56.189Z,32.59
2018-06-21T15:25:25.394Z,32.98
2018-06-21T15:27:55.636Z,32.87
2018-06-21T15:30:24.836Z,33.32
2018-06-21T15:32:53.977Z,34.30
2018-06-21T15:35:23.157Z,34.09
2018-06-21T15:37:52.339Z,34.32
2018-06-21T15:40:21.435Z,34.92
2018-06-21T15:42:50.590Z,34.95
2018-06-21T15:45:19.730Z,34.88
2018-06-21T15:47:48.765Z,34.18
2018-06-21T15:50:17.858Z,34.98
2018-06-21T15:52:47.318Z,34.35
2018-06-21T15:55:16.753Z,34.75
2018-06-21T15:57:45.849Z,34.59
2018-06-21T16:00:14.940Z,35.06
2018-06-21T16:02:44.137Z,34.47
2018-06-21T16:05:13.342Z,34.41
2018-06-21T16:07:42.425Z,33.89
2018-06-21T16:10:11.533Z,34.19
2018-06-21T16:12:40.638Z,33.70
2018-06-21T16:15:09.768Z,33.52
2018-06-21T16:17:38.986Z,33.65
2018-06-21T16:20:08.076Z,33.96
2018-06-21T16:22:37.207Z,34.20
2018-06-21T16:25:06.317Z,36.36
2018-06-21T16:27:35.401Z,36.80
2018-06-21T16:30:04.746Z,36.17
2018-06-21T16:32:33.899Z,37.60
2018-06-21T16:35:03.033Z,37.33
2018-06-21T16:37:32.185Z,37.22
2018-06-21T16:40:01.789Z,36.74
2018-06-21T16:42:31.131Z,38.08
2018-06-21T16:45:00.338Z,37.50
2018-06-21T16:47:29.508Z,38.14
2018-06-21T16:49:58.604Z,37.95
2018-06-21T16:52:27.849Z,37.79
2018-06-21T16:54:57.038Z,37.40
2018-06-21T16:57:26.155Z,38.20
2018-06-21T16:59:55.257Z,38.24
2018-06-21T17:02:24.406Z,38.17
2018-06-21T17:04:53.529Z,38.90
2018-06-21T17:07:22.645Z,38.67
2018-06-21T17:09:51.782Z,37.66
2018-06-21T17:12:20.898Z,39.36
2018-06-21T17:14:50.014Z,38.73
2018-06-21T17:17:19.146Z,39.43
2018-06-21T17:19:48.870Z,39.48
2018-06-21T17:22:18.017Z,37.83
2018-06-21T17:24:47.121Z,38.55
2018-06-21T17:27:16.333Z,38.64
2018-06-21T17:29:45.421Z,39.27
2018-06-21T17:32:14.533Z,38.52
2018-06-21T17:34:43.651Z,39.15
2018-06-21T17:37:12.786Z,37.91
2018-06-21T17:39:41.865Z,37.41
2018-06-21T17:42:10.954Z,38.07
2018-06-21T17:44:40.033Z,38.86
2018-06-21T17:47:09.165Z,39.66
2018-06-21T17:49:38.241Z,39.89
2018-06-21T17:52:07.375Z,40.45
2018-06-21T17:54:36.485Z,40.32
2018-06-21T17:57:05.621Z,40.25
2018-06-21T17:59:34.725Z,39.30
2018-06-21T18:02:03.926Z,39.82
2018-06-21T18:04:33.005Z,39.52
2018-06-21T18:07:02.137Z,39.60
2018-06-21T18:09:31.410Z,40.34
2018-06-21T18:12:00.553Z,40.80
2018-06-21T18:14:29.968Z,40.69
2018-06-21T18:16:59.069Z,41.76
2018-06-21T18:19:28.310Z,41.21
2018-06-21T18:21:57.437Z,42.52
2018-06-21T18:24:26.654Z,41.53
2018-06-21T18:26:55.760Z,41.36
2018-06-21T18:29:24.841Z,42.37
2018-06-21T18:31:54.381Z,41.59
2018-06-21T18:34:23.499Z,42.00
2018-06-21T18:36:52.603Z,42.13
2018-06-21T18:39:21.729Z,43.55
2018-06-21T18:41:50.813Z,43.40
2018-06-21T18:44:19.929Z,43.79
2018-06-21T18:46:49.021Z,43.74
2018-06-21T18:49:18.108Z,43.80
2018-06-21T18:51:47.194Z,43.01
2018-06-21T18:54:16.328Z,43.30
2018-06-21T18:56:45.451Z,43.71
2018-06-21T18:59:14.582Z,45.11
2018-06-21T19:01:43.729Z,44.39
2018-06-21T19:04:13.470Z,44.94
2018-06-21T19:06:49.453Z,45.32
2018-06-21T19:09:23.797Z,45.73
2018-06-21T19:11:55.748Z,46.46
2018-06-21T19:14:24.853Z,46.67
2018-06-21T19:16:53.949Z,45.94
2018-06-21T19:19:23.076Z,46.40
2018-06-21T19:21:52.230Z,47.07
2018-06-21T19:24:21.358Z,46.75
2018-06-21T19:26:50.453Z,47.15
2018-06-21T19:29:19.570Z,46.48
2018-06-21T19:31:48.653Z,47.10
2018-06-21T19:34:17.753Z,47.24
2018-06-21T19:36:46.837Z,48.42
2018-06-21T19:39:15.953Z,47.64
2018-06-21T19:41:45.086Z,48.11
2018-06-21T19:44:14.163Z,48.28
2018-06-21T19:46:43.253Z,48.97
2018-06-21T19:49:12.425Z,48.60
2018-06-21T19:51:41.702Z,48.70
2018-06-21T19:54:10.976Z,48.04
2018-06-21T19:56:40.050Z,48.65
2018-06-21T19:59:09.155Z,48.49
2018-06-21T20:01:38.225Z,48.48
2018-06-21T20:04:07.318Z,49.49
2018-06-21T20:06:36.462Z,49.59
2018-06-21T20:09:08.173Z,49.83
2018-06-21T20:11:38.345Z,49.59
2018-06-21T20:14:07.431Z,50.05
2018-06-21T20:16:36.525Z,49.82
2018-06-21T20:19:10.086Z,49.66
2018-06-21T20:21:39.248Z,50.48
2018-06-21T20:24:08.634Z,50.46
2018-06-21T20:26:37.734Z,50.98
2018-06-21T20:29:12.145Z,50.84
2018-06-21T20:31:41.541Z,51.60
2018-06-21T20:34:10.690Z,51.42
2018-06-21T20:36:39.805Z,51.40
2018-06-21T20:39:10.276Z,51.49
2018-06-21T20:41:39.380Z,51.89
2018-06-21T20:44:08.514Z,51.45
2018-06-21T20:46:37.578Z,52.07
2018-06-21T20:49:06.705Z,51.63
2018-06-21T20:51:35.792Z,51.80
2018-06-21T20:54:04.945Z,51.74
2018-06-21T20:56:34.099Z,51.62
2018-06-21T20:59:03.225Z,52.15
2018-06-21T21:01:32.296Z,52.08
2018-06-21T21:04:01.362Z,52.84
2018-06-21T21:06:30.409Z,52.19
2018-06-21T21:08:59.474Z,52.45
2018-06-21T21:11:28.513Z,52.35
2018-06-21T21:13:57.569Z,52.45
2018-06-21T21:16:26.625Z,53.05
2018-06-21T21:18:55.713Z,52.36
2018-06-21T21:21:24.757Z,52.99
2018-06-21T21:23:53.898Z,53.61
2018-06-21T21:26:23.487Z,53.75
2018-06-21T21:28:52.653Z,54.16
2018-06-21T21:31:21.705Z,54.06
2018-06-21T21:33:50.799Z,54.14
2018-06-21T21:36:19.877Z,53.68
2018-06-21T21:38:49.612Z,53.22
2018-06-21T21:41:18.682Z,53.24
2018-06-21T21:43:47.838Z,53.39
2018-06-21T21:46:16.897Z,53.56
2018-06-21T21:48:46.076Z,53.32
2018-06-21T21:51:15.169Z,54.14
2018-06-21T21:53:44.596Z,53.27
2018-06-21T21:56:13.669Z,52.93
2018-06-21T21:58:42.717Z,53.11
2018-06-21T22:01:11.791Z,54.36
2018-06-21T22:03:40.841Z,53.55
2018-06-21T22:06:09.889Z,53.75
2018-06-21T22:08:39.069Z,53.59
2018-06-21T22:11:08.139Z,53.85
2018-06-21T22:13:37.193Z,53.96
2018-06-21T22:16:06.253Z,55.04
2018-06-21T22:18:35.301Z,55.87
2018-06-21T22:21:04.345Z,55.30
2018-06-21T22:23:33.402Z,54.92
2018-06-21T22:26:02.441Z,55.84
2018-06-21T22:28:31.516Z,56.30
2018-06-21T22:31:00.565Z,56.47
2018-06-21T22:33:29.879Z,56.25
2018-06-21T22:35:58.984Z,55.96
2018-06-21T22:38:28.140Z,55.82
2018-06-21T22:40:57.157Z,56.05
2018-06-21T22:43:26.197Z,56.22
2018-06-21T22:45:55.257Z,56.44
2018-06-21T22:48:24.309Z,56.42
2018-06-21T22:50:53.422Z,56.64
2018-06-21T22:53:22.533Z,57.30
2018-06-21T22:55:51.628Z,56.90
2018-06-21T22:58:20.685Z,57.54
2018-06-21T23:00:49.737Z,57.11
2018-06-21T23:03:18.802Z,57.60
2018-06-21T23:05:47.865Z,57.13
2018-06-21T23:08:16.913Z,58.07
2018-06-21T23:10:45.969Z,58.10
2018-06-21T23:13:15.011Z,57.66
2018-06-21T23:15:44.093Z,58.84
2018-06-21T23:18:19.273Z,58.91
2018-06-21T23:20:48.321Z,58.23
2018-06-21T23:23:17.479Z,59.09
2018-06-21T23:25:46.537Z,59.78
2018-06-21T23:28:15.602Z,59.63
2018-06-21T23:30:44.705Z,59.40
2018-06-21T23:33:13.762Z,58.59
2018-06-21T23:35:42.942Z,58.63
2018-06-21T23:38:12.010Z,58.38
2018-06-21T23:40:41.053Z,58.98
2018-06-21T23:43:10.109Z,58.27
2018-06-21T23:45:40.037Z,58.54
2018-06-21T23:48:09.093Z,58.46
2018-06-21T23:50:38.170Z,58.78
2018-06-21T23:53:07.229Z,59.18
2018-06-21T23:55:36.294Z,58.78
2018-06-21T23:58:05.797Z,59.25
